sensor_id;sensor_type;location;lat;lon;timestamp;P1;durP1;ratioP1;P2;durP2;ratioP2
22764;SDS011;11549;50.852;3.816;2022-09-21T00:01:38;19.15;;;10.38;;
22764;SDS011;11549;50.852;3.816;2022-09-21T00:04:07;14.68;;;9.88;;
22764;SDS011;11549;50.852;3.816;2022-09-21T00:06:36;12.30;;;9.68;;
22764;SDS011;11549;50.852;3.816;2022-09-21T00:09:05;14.90;;;9.23;;
22764;SDS011;11549;50.852;3.816;2022-09-21T00:11:34;14.77;;;10.10;;
22764;SDS011;11549;50.852;3.816;2022-09-21T00:14:06;13.52;;;9.23;;
22764;SDS011;11549;50.852;3.816;2022-09-21T00:16:38;18.42;;;10.30;;
22764;SDS011;11549;50.852;3.816;2022-09-21T00:19:08;13.75;;;9.68;;
22764;SDS011;11549;50.852;3.816;2022-09-21T00:21:37;15.30;;;10.45;;
22764;SDS011;11549;50.852;3.816;2022-09-21T00:24:06;15.85;;;10.00;;
22764;SDS011;11549;50.852;3.816;2022-09-21T00:26:35;13.48;;;10.40;;
22764;SDS011;11549;50.852;3.816;2022-09-21T00:29:05;15.18;;;9.80;;
22764;SDS011;11549;50.852;3.816;2022-09-21T00:31:34;18.60;;;10.80;;
22764;SDS011;11549;50.852;3.816;2022-09-21T00:34:03;16.60;;;10.10;;
22764;SDS011;11549;50.852;3.816;2022-09-21T00:36:33;16.75;;;10.65;;
22764;SDS011;11549;50.852;3.816;2022-09-21T00:39:02;15.20;;;10.55;;
22764;SDS011;11549;50.852;3.816;2022-09-21T00:41:31;16.27;;;11.07;;
22764;SDS011;11549;50.852;3.816;2022-09-21T00:46:52;17.13;;;11.63;;
22764;SDS011;11549;50.852;3.816;2022-09-21T00:49:23;17.20;;;12.05;;
22764;SDS011;11549;50.852;3.816;2022-09-21T00:51:53;16.92;;;11.55;;
22764;SDS011;11549;50.852;3.816;2022-09-21T00:54:25;15.18;;;11.05;;
22764;SDS011;11549;50.852;3.816;2022-09-21T00:56:57;17.15;;;11.32;;
22764;SDS011;11549;50.852;3.816;2022-09-21T00:59:30;16.88;;;11.02;;
22764;SDS011;11549;50.852;3.816;2022-09-21T01:02:01;17.92;;;11.43;;
22764;SDS011;11549;50.852;3.816;2022-09-21T01:04:30;15.35;;;12.07;;
22764;SDS011;11549;50.852;3.816;2022-09-21T01:06:59;18.95;;;13.40;;
22764;SDS011;11549;50.852;3.816;2022-09-21T01:09:32;19.80;;;12.88;;
22764;SDS011;11549;50.852;3.816;2022-09-21T01:12:03;18.63;;;13.38;;
22764;SDS011;11549;50.852;3.816;2022-09-21T01:14:48;21.15;;;14.85;;
22764;SDS011;11549;50.852;3.816;2022-09-21T01:17:29;18.17;;;14.13;;
22764;SDS011;11549;50.852;3.816;2022-09-21T01:20:19;19.13;;;13.98;;
22764;SDS011;11549;50.852;3.816;2022-09-21T01:23:06;19.27;;;14.85;;
22764;SDS011;11549;50.852;3.816;2022-09-21T01:25:52;19.65;;;15.10;;
22764;SDS011;11549;50.852;3.816;2022-09-21T01:28:32;18.42;;;13.68;;
22764;SDS011;11549;50.852;3.816;2022-09-21T01:31:21;18.73;;;14.27;;
22764;SDS011;11549;50.852;3.816;2022-09-21T01:33:54;21.92;;;16.35;;
22764;SDS011;11549;50.852;3.816;2022-09-21T01:36:29;19.45;;;14.52;;
22764;SDS011;11549;50.852;3.816;2022-09-21T01:39:09;20.38;;;14.23;;
22764;SDS011;11549;50.852;3.816;2022-09-21T01:41:40;21.30;;;14.45;;
22764;SDS011;11549;50.852;3.816;2022-09-21T01:44:14;17.00;;;13.32;;
22764;SDS011;11549;50.852;3.816;2022-09-21T01:46:46;19.52;;;13.70;;
22764;SDS011;11549;50.852;3.816;2022-09-21T01:49:16;17.67;;;13.48;;
22764;SDS011;11549;50.852;3.816;2022-09-21T01:51:50;20.15;;;14.05;;
22764;SDS011;11549;50.852;3.816;2022-09-21T01:54:28;17.17;;;13.73;;
22764;SDS011;11549;50.852;3.816;2022-09-21T01:57:04;18.90;;;13.85;;
22764;SDS011;11549;50.852;3.816;2022-09-21T01:59:39;22.00;;;15.13;;
22764;SDS011;11549;50.852;3.816;2022-09-21T02:02:16;19.02;;;14.85;;
22764;SDS011;11549;50.852;3.816;2022-09-21T02:04:47;20.77;;;15.55;;
22764;SDS011;11549;50.852;3.816;2022-09-21T02:07:17;24.55;;;16.38;;
22764;SDS011;11549;50.852;3.816;2022-09-21T02:09:45;22.05;;;15.60;;
22764;SDS011;11549;50.852;3.816;2022-09-21T02:12:14;25.40;;;16.83;;
22764;SDS011;11549;50.852;3.816;2022-09-21T02:14:46;25.30;;;17.25;;
22764;SDS011;11549;50.852;3.816;2022-09-21T02:17:20;24.05;;;16.98;;
22764;SDS011;11549;50.852;3.816;2022-09-21T02:20:00;23.48;;;16.95;;
22764;SDS011;11549;50.852;3.816;2022-09-21T02:22:46;21.98;;;16.70;;
22764;SDS011;11549;50.852;3.816;2022-09-21T02:25:26;23.77;;;17.35;;
22764;SDS011;11549;50.852;3.816;2022-09-21T02:28:04;23.50;;;17.23;;
22764;SDS011;11549;50.852;3.816;2022-09-21T02:30:40;27.58;;;18.17;;
22764;SDS011;11549;50.852;3.816;2022-09-21T02:33:18;24.65;;;17.80;;
22764;SDS011;11549;50.852;3.816;2022-09-21T02:35:52;22.27;;;16.15;;
22764;SDS011;11549;50.852;3.816;2022-09-21T02:38:29;25.52;;;17.83;;
22764;SDS011;11549;50.852;3.816;2022-09-21T02:41:03;26.17;;;16.98;;
22764;SDS011;11549;50.852;3.816;2022-09-21T02:43:35;24.25;;;17.90;;
22764;SDS011;11549;50.852;3.816;2022-09-21T02:46:08;30.55;;;20.42;;
22764;SDS011;11549;50.852;3.816;2022-09-21T02:48:42;28.67;;;21.63;;
22764;SDS011;11549;50.852;3.816;2022-09-21T02:51:15;27.05;;;20.23;;
22764;SDS011;11549;50.852;3.816;2022-09-21T02:53:48;32.00;;;20.08;;
22764;SDS011;11549;50.852;3.816;2022-09-21T02:56:18;26.17;;;19.33;;
22764;SDS011;11549;50.852;3.816;2022-09-21T02:58:49;30.40;;;19.35;;
22764;SDS011;11549;50.852;3.816;2022-09-21T03:01:24;29.13;;;20.58;;
22764;SDS011;11549;50.852;3.816;2022-09-21T03:03:53;33.75;;;21.70;;
22764;SDS011;11549;50.852;3.816;2022-09-21T03:06:21;27.45;;;19.73;;
22764;SDS011;11549;50.852;3.816;2022-09-21T03:08:50;29.20;;;20.67;;
22764;SDS011;11549;50.852;3.816;2022-09-21T03:11:18;23.92;;;17.75;;
22764;SDS011;11549;50.852;3.816;2022-09-21T03:13:47;22.90;;;16.50;;
22764;SDS011;11549;50.852;3.816;2022-09-21T03:16:15;24.77;;;18.92;;
22764;SDS011;11549;50.852;3.816;2022-09-21T03:18:45;29.73;;;20.83;;
22764;SDS011;11549;50.852;3.816;2022-09-21T03:21:13;27.83;;;20.38;;
22764;SDS011;11549;50.852;3.816;2022-09-21T03:23:42;32.25;;;23.73;;
22764;SDS011;11549;50.852;3.816;2022-09-21T03:26:10;34.08;;;24.48;;
22764;SDS011;11549;50.852;3.816;2022-09-21T03:28:38;34.42;;;25.20;;
22764;SDS011;11549;50.852;3.816;2022-09-21T03:31:07;32.17;;;23.33;;
22764;SDS011;11549;50.852;3.816;2022-09-21T03:33:35;30.48;;;22.05;;
22764;SDS011;11549;50.852;3.816;2022-09-21T03:36:05;30.17;;;22.58;;
22764;SDS011;11549;50.852;3.816;2022-09-21T03:38:34;31.02;;;21.55;;
22764;SDS011;11549;50.852;3.816;2022-09-21T03:41:03;33.75;;;23.38;;
22764;SDS011;11549;50.852;3.816;2022-09-21T03:43:31;29.40;;;20.67;;
22764;SDS011;11549;50.852;3.816;2022-09-21T03:46:00;28.23;;;19.30;;
22764;SDS011;11549;50.852;3.816;2022-09-21T03:48:28;25.40;;;18.60;;
22764;SDS011;11549;50.852;3.816;2022-09-21T03:50:57;25.02;;;19.27;;
22764;SDS011;11549;50.852;3.816;2022-09-21T03:53:27;33.45;;;22.45;;
22764;SDS011;11549;50.852;3.816;2022-09-21T03:55:56;28.48;;;21.92;;
22764;SDS011;11549;50.852;3.816;2022-09-21T03:58:24;29.10;;;21.95;;
22764;SDS011;11549;50.852;3.816;2022-09-21T04:00:52;30.48;;;20.08;;
22764;SDS011;11549;50.852;3.816;2022-09-21T04:03:21;30.92;;;22.58;;
22764;SDS011;11549;50.852;3.816;2022-09-21T04:05:49;34.10;;;20.70;;
22764;SDS011;11549;50.852;3.816;2022-09-21T04:08:17;31.15;;;23.13;;
22764;SDS011;11549;50.852;3.816;2022-09-21T04:10:47;28.70;;;21.00;;
22764;SDS011;11549;50.852;3.816;2022-09-21T04:13:16;27.17;;;21.80;;
22764;SDS011;11549;50.852;3.816;2022-09-21T04:15:44;27.48;;;20.83;;
22764;SDS011;11549;50.852;3.816;2022-09-21T04:18:12;28.95;;;20.38;;
22764;SDS011;11549;50.852;3.816;2022-09-21T04:20:41;29.00;;;21.80;;
22764;SDS011;11549;50.852;3.816;2022-09-21T04:23:09;28.98;;;21.42;;
22764;SDS011;11549;50.852;3.816;2022-09-21T04:25:37;28.27;;;20.40;;
22764;SDS011;11549;50.852;3.816;2022-09-21T04:28:08;26.27;;;20.10;;
22764;SDS011;11549;50.852;3.816;2022-09-21T04:30:36;30.33;;;21.30;;
22764;SDS011;11549;50.852;3.816;2022-09-21T04:33:05;32.80;;;24.20;;
22764;SDS011;11549;50.852;3.816;2022-09-21T04:35:34;33.00;;;23.63;;
22764;SDS011;11549;50.852;3.816;2022-09-21T04:38:02;34.65;;;25.15;;
22764;SDS011;11549;50.852;3.816;2022-09-21T04:40:31;31.33;;;24.23;;
22764;SDS011;11549;50.852;3.816;2022-09-21T04:42:59;31.98;;;23.48;;
22764;SDS011;11549;50.852;3.816;2022-09-21T04:45:29;40.90;;;26.77;;
22764;SDS011;11549;50.852;3.816;2022-09-21T04:47:57;39.85;;;26.48;;
22764;SDS011;11549;50.852;3.816;2022-09-21T04:50:26;38.20;;;25.92;;
22764;SDS011;11549;50.852;3.816;2022-09-21T04:52:54;39.13;;;26.45;;
22764;SDS011;11549;50.852;3.816;2022-09-21T04:55:23;36.67;;;24.95;;
22764;SDS011;11549;50.852;3.816;2022-09-21T04:57:52;30.55;;;21.95;;
22764;SDS011;11549;50.852;3.816;2022-09-21T05:00:20;27.42;;;19.20;;
22764;SDS011;11549;50.852;3.816;2022-09-21T05:02:50;27.55;;;18.42;;
22764;SDS011;11549;50.852;3.816;2022-09-21T05:05:18;26.00;;;17.70;;
22764;SDS011;11549;50.852;3.816;2022-09-21T05:07:46;26.20;;;18.75;;
22764;SDS011;11549;50.852;3.816;2022-09-21T05:10:14;26.30;;;17.58;;
22764;SDS011;11549;50.852;3.816;2022-09-21T05:12:42;24.88;;;17.23;;
22764;SDS011;11549;50.852;3.816;2022-09-21T05:15:10;25.65;;;17.88;;
22764;SDS011;11549;50.852;3.816;2022-09-21T05:17:39;23.88;;;17.88;;
22764;SDS011;11549;50.852;3.816;2022-09-21T05:20:09;28.60;;;17.85;;
22764;SDS011;11549;50.852;3.816;2022-09-21T05:22:38;24.75;;;17.83;;
22764;SDS011;11549;50.852;3.816;2022-09-21T05:25:07;30.08;;;19.85;;
22764;SDS011;11549;50.852;3.816;2022-09-21T05:27:36;35.13;;;24.33;;
22764;SDS011;11549;50.852;3.816;2022-09-21T05:30:04;30.15;;;21.10;;
22764;SDS011;11549;50.852;3.816;2022-09-21T05:32:38;33.75;;;21.10;;
22764;SDS011;11549;50.852;3.816;2022-09-21T05:35:14;27.33;;;19.42;;
22764;SDS011;11549;50.852;3.816;2022-09-21T05:37:52;29.27;;;20.27;;
22764;SDS011;11549;50.852;3.816;2022-09-21T05:40:25;24.50;;;17.90;;
22764;SDS011;11549;50.852;3.816;2022-09-21T05:42:55;23.58;;;15.82;;
22764;SDS011;11549;50.852;3.816;2022-09-21T05:45:23;23.70;;;16.05;;
22764;SDS011;11549;50.852;3.816;2022-09-21T05:47:59;24.65;;;18.08;;
22764;SDS011;11549;50.852;3.816;2022-09-21T05:50:40;30.33;;;20.30;;
22764;SDS011;11549;50.852;3.816;2022-09-21T05:53:29;26.40;;;18.95;;
22764;SDS011;11549;50.852;3.816;2022-09-21T05:56:15;25.52;;;17.80;;
22764;SDS011;11549;50.852;3.816;2022-09-21T05:59:00;23.13;;;17.40;;
22764;SDS011;11549;50.852;3.816;2022-09-21T06:01:42;25.98;;;19.52;;
22764;SDS011;11549;50.852;3.816;2022-09-21T06:04:19;23.92;;;17.10;;
22764;SDS011;11549;50.852;3.816;2022-09-21T06:06:49;19.63;;;15.73;;
22764;SDS011;11549;50.852;3.816;2022-09-21T06:09:17;19.95;;;14.60;;
22764;SDS011;11549;50.852;3.816;2022-09-21T06:11:46;18.70;;;14.07;;
22764;SDS011;11549;50.852;3.816;2022-09-21T06:14:15;19.38;;;14.50;;
22764;SDS011;11549;50.852;3.816;2022-09-21T06:16:50;18.55;;;15.20;;
22764;SDS011;11549;50.852;3.816;2022-09-21T06:19:19;22.67;;;17.30;;
22764;SDS011;11549;50.852;3.816;2022-09-21T06:21:48;17.88;;;15.88;;
22764;SDS011;11549;50.852;3.816;2022-09-21T06:24:17;20.88;;;16.98;;
22764;SDS011;11549;50.852;3.816;2022-09-21T06:26:45;19.83;;;15.57;;
22764;SDS011;11549;50.852;3.816;2022-09-21T06:29:13;21.30;;;16.83;;
22764;SDS011;11549;50.852;3.816;2022-09-21T06:31:42;21.48;;;17.58;;
22764;SDS011;11549;50.852;3.816;2022-09-21T06:34:11;19.05;;;15.32;;
22764;SDS011;11549;50.852;3.816;2022-09-21T06:36:39;17.40;;;15.20;;
22764;SDS011;11549;50.852;3.816;2022-09-21T06:39:08;18.70;;;14.98;;
22764;SDS011;11549;50.852;3.816;2022-09-21T06:41:37;24.52;;;18.63;;
22764;SDS011;11549;50.852;3.816;2022-09-21T06:44:05;32.17;;;25.52;;
22764;SDS011;11549;50.852;3.816;2022-09-21T06:46:33;26.65;;;22.33;;
22764;SDS011;11549;50.852;3.816;2022-09-21T06:49:02;25.50;;;21.17;;
22764;SDS011;11549;50.852;3.816;2022-09-21T06:51:30;20.52;;;16.98;;
22764;SDS011;11549;50.852;3.816;2022-09-21T06:53:59;19.05;;;16.08;;
22764;SDS011;11549;50.852;3.816;2022-09-21T06:56:29;20.58;;;14.02;;
22764;SDS011;11549;50.852;3.816;2022-09-21T06:58:57;16.77;;;13.20;;
22764;SDS011;11549;50.852;3.816;2022-09-21T07:01:26;16.80;;;12.38;;
22764;SDS011;11549;50.852;3.816;2022-09-21T07:03:54;16.58;;;12.10;;
22764;SDS011;11549;50.852;3.816;2022-09-21T07:06:22;18.48;;;12.10;;
22764;SDS011;11549;50.852;3.816;2022-09-21T07:08:51;17.67;;;11.95;;
22764;SDS011;11549;50.852;3.816;2022-09-21T07:11:41;15.90;;;11.07;;
22764;SDS011;11549;50.852;3.816;2022-09-21T07:14:09;13.48;;;10.02;;
22764;SDS011;11549;50.852;3.816;2022-09-21T07:16:38;15.98;;;11.07;;
22764;SDS011;11549;50.852;3.816;2022-09-21T07:19:06;14.20;;;10.63;;
22764;SDS011;11549;50.852;3.816;2022-09-21T07:21:37;17.67;;;10.85;;
22764;SDS011;11549;50.852;3.816;2022-09-21T07:24:05;16.25;;;10.38;;
22764;SDS011;11549;50.852;3.816;2022-09-21T07:26:37;16.27;;;10.65;;
22764;SDS011;11549;50.852;3.816;2022-09-21T07:29:07;13.43;;;10.43;;
22764;SDS011;11549;50.852;3.816;2022-09-21T07:31:35;16.05;;;10.55;;
22764;SDS011;11549;50.852;3.816;2022-09-21T07:34:04;14.60;;;11.38;;
22764;SDS011;11549;50.852;3.816;2022-09-21T07:36:33;13.57;;;9.90;;
22764;SDS011;11549;50.852;3.816;2022-09-21T07:39:01;13.57;;;9.95;;
22764;SDS011;11549;50.852;3.816;2022-09-21T07:41:29;11.02;;;9.70;;
22764;SDS011;11549;50.852;3.816;2022-09-21T07:43:58;14.57;;;11.20;;
22764;SDS011;11549;50.852;3.816;2022-09-21T07:46:28;15.82;;;10.35;;
22764;SDS011;11549;50.852;3.816;2022-09-21T07:48:56;16.45;;;10.73;;
22764;SDS011;11549;50.852;3.816;2022-09-21T07:51:25;15.52;;;10.77;;
22764;SDS011;11549;50.852;3.816;2022-09-21T07:53:53;14.73;;;10.35;;
22764;SDS011;11549;50.852;3.816;2022-09-21T07:56:23;17.50;;;11.45;;
22764;SDS011;11549;50.852;3.816;2022-09-21T07:58:52;14.82;;;10.30;;
22764;SDS011;11549;50.852;3.816;2022-09-21T08:01:36;14.10;;;10.68;;
22764;SDS011;11549;50.852;3.816;2022-09-21T08:04:06;15.40;;;10.50;;
22764;SDS011;11549;50.852;3.816;2022-09-21T08:06:36;16.17;;;10.75;;
22764;SDS011;11549;50.852;3.816;2022-09-21T08:09:06;16.48;;;11.13;;
22764;SDS011;11549;50.852;3.816;2022-09-21T08:11:35;12.43;;;9.48;;
22764;SDS011;11549;50.852;3.816;2022-09-21T08:14:04;15.40;;;10.75;;
22764;SDS011;11549;50.852;3.816;2022-09-21T08:16:33;12.75;;;9.25;;
22764;SDS011;11549;50.852;3.816;2022-09-21T08:19:03;14.05;;;9.73;;
22764;SDS011;11549;50.852;3.816;2022-09-21T08:21:32;14.13;;;10.63;;
22764;SDS011;11549;50.852;3.816;2022-09-21T08:24:00;14.15;;;10.63;;
22764;SDS011;11549;50.852;3.816;2022-09-21T08:26:28;14.23;;;9.95;;
22764;SDS011;11549;50.852;3.816;2022-09-21T08:28:57;16.33;;;10.88;;
22764;SDS011;11549;50.852;3.816;2022-09-21T08:31:25;13.75;;;10.00;;
22764;SDS011;11549;50.852;3.816;2022-09-21T08:33:55;13.38;;;9.18;;
22764;SDS011;11549;50.852;3.816;2022-09-21T08:36:25;14.25;;;9.27;;
22764;SDS011;11549;50.852;3.816;2022-09-21T08:38:53;14.13;;;9.10;;
22764;SDS011;11549;50.852;3.816;2022-09-21T08:41:23;11.45;;;8.70;;
22764;SDS011;11549;50.852;3.816;2022-09-21T08:44:10;13.85;;;8.75;;
22764;SDS011;11549;50.852;3.816;2022-09-21T08:46:42;13.07;;;8.35;;
22764;SDS011;11549;50.852;3.816;2022-09-21T08:49:14;11.88;;;7.53;;
22764;SDS011;11549;50.852;3.816;2022-09-21T08:51:48;10.60;;;6.70;;
22764;SDS011;11549;50.852;3.816;2022-09-21T08:54:22;13.98;;;7.38;;
22764;SDS011;11549;50.852;3.816;2022-09-21T08:56:55;12.07;;;8.10;;
22764;SDS011;11549;50.852;3.816;2022-09-21T08:59:31;13.05;;;7.25;;
22764;SDS011;11549;50.852;3.816;2022-09-21T09:02:02;11.68;;;5.35;;
22764;SDS011;11549;50.852;3.816;2022-09-21T09:04:47;7.60;;;5.60;;
22764;SDS011;11549;50.852;3.816;2022-09-21T09:07:30;10.18;;;5.80;;
22764;SDS011;11549;50.852;3.816;2022-09-21T09:10:25;11.40;;;5.10;;
22764;SDS011;11549;50.852;3.816;2022-09-21T09:13:06;12.20;;;6.60;;
22764;SDS011;11549;50.852;3.816;2022-09-21T09:15:58;11.63;;;6.30;;
22764;SDS011;11549;50.852;3.816;2022-09-21T09:18:37;10.68;;;5.82;;
22764;SDS011;11549;50.852;3.816;2022-09-21T09:21:12;10.60;;;6.50;;
22764;SDS011;11549;50.852;3.816;2022-09-21T09:23:59;9.15;;;6.57;;
22764;SDS011;11549;50.852;3.816;2022-09-21T09:26:32;8.52;;;5.70;;
22764;SDS011;11549;50.852;3.816;2022-09-21T09:29:11;9.93;;;6.28;;
22764;SDS011;11549;50.852;3.816;2022-09-21T09:31:45;9.43;;;6.38;;
22764;SDS011;11549;50.852;3.816;2022-09-21T09:34:15;12.10;;;6.30;;
22764;SDS011;11549;50.852;3.816;2022-09-21T09:36:51;10.05;;;6.45;;
22764;SDS011;11549;50.852;3.816;2022-09-21T09:39:26;10.10;;;6.40;;
22764;SDS011;11549;50.852;3.816;2022-09-21T09:41:59;10.10;;;6.10;;
22764;SDS011;11549;50.852;3.816;2022-09-21T09:44:40;11.88;;;6.68;;
22764;SDS011;11549;50.852;3.816;2022-09-21T09:47:35;8.27;;;4.63;;
22764;SDS011;11549;50.852;3.816;2022-09-21T09:50:17;10.15;;;5.05;;
22764;SDS011;11549;50.852;3.816;2022-09-21T09:52:52;8.80;;;4.68;;
22764;SDS011;11549;50.852;3.816;2022-09-21T09:55:26;8.85;;;4.40;;
22764;SDS011;11549;50.852;3.816;2022-09-21T09:58:04;7.53;;;3.50;;
22764;SDS011;11549;50.852;3.816;2022-09-21T10:00:43;9.30;;;3.92;;
22764;SDS011;11549;50.852;3.816;2022-09-21T10:03:16;8.45;;;3.78;;
22764;SDS011;11549;50.852;3.816;2022-09-21T10:05:46;7.05;;;3.55;;
22764;SDS011;11549;50.852;3.816;2022-09-21T10:08:40;8.98;;;3.30;;
22764;SDS011;11549;50.852;3.816;2022-09-21T10:11:12;8.63;;;4.57;;
22764;SDS011;11549;50.852;3.816;2022-09-21T10:13:42;8.70;;;4.07;;
22764;SDS011;11549;50.852;3.816;2022-09-21T10:16:12;7.82;;;4.15;;
22764;SDS011;11549;50.852;3.816;2022-09-21T10:18:46;7.03;;;4.00;;
22764;SDS011;11549;50.852;3.816;2022-09-21T10:21:18;7.10;;;3.65;;
22764;SDS011;11549;50.852;3.816;2022-09-21T10:23:48;9.00;;;3.90;;
22764;SDS011;11549;50.852;3.816;2022-09-21T10:26:19;8.73;;;2.78;;
22764;SDS011;11549;50.852;3.816;2022-09-21T10:28:55;6.68;;;2.30;;
22764;SDS011;11549;50.852;3.816;2022-09-21T10:31:25;6.95;;;2.92;;
22764;SDS011;11549;50.852;3.816;2022-09-21T10:34:04;6.50;;;2.60;;
22764;SDS011;11549;50.852;3.816;2022-09-21T10:36:37;7.03;;;2.78;;
22764;SDS011;11549;50.852;3.816;2022-09-21T10:39:18;7.32;;;2.20;;
22764;SDS011;11549;50.852;3.816;2022-09-21T10:41:51;6.78;;;2.60;;
22764;SDS011;11549;50.852;3.816;2022-09-21T10:44:25;5.15;;;1.95;;
22764;SDS011;11549;50.852;3.816;2022-09-21T10:46:56;4.68;;;1.75;;
22764;SDS011;11549;50.852;3.816;2022-09-21T10:49:29;6.53;;;2.45;;
22764;SDS011;11549;50.852;3.816;2022-09-21T10:51:57;5.07;;;2.20;;
22764;SDS011;11549;50.852;3.816;2022-09-21T10:54:28;5.95;;;2.17;;
22764;SDS011;11549;50.852;3.816;2022-09-21T10:57:01;3.83;;;1.70;;
22764;SDS011;11549;50.852;3.816;2022-09-21T10:59:34;5.18;;;1.80;;
22764;SDS011;11549;50.852;3.816;2022-09-21T11:05:05;6.95;;;1.80;;
22764;SDS011;11549;50.852;3.816;2022-09-21T11:07:38;9.45;;;2.17;;
22764;SDS011;11549;50.852;3.816;2022-09-21T11:10:13;6.60;;;1.70;;
22764;SDS011;11549;50.852;3.816;2022-09-21T11:12:59;7.38;;;1.88;;
22764;SDS011;11549;50.852;3.816;2022-09-21T11:15:40;6.57;;;1.80;;
22764;SDS011;11549;50.852;3.816;2022-09-21T11:18:15;6.32;;;1.77;;
22764;SDS011;11549;50.852;3.816;2022-09-21T11:20:48;5.57;;;2.50;;
22764;SDS011;11549;50.852;3.816;2022-09-21T11:28:42;7.50;;;1.73;;
22764;SDS011;11549;50.852;3.816;2022-09-21T11:31:26;8.02;;;2.25;;
22764;SDS011;11549;50.852;3.816;2022-09-21T11:37:03;8.38;;;1.80;;
22764;SDS011;11549;50.852;3.816;2022-09-21T11:39:44;6.20;;;1.65;;
22764;SDS011;11549;50.852;3.816;2022-09-21T11:42:27;4.95;;;1.30;;
22764;SDS011;11549;50.852;3.816;2022-09-21T11:45:09;4.15;;;1.33;;
22764;SDS011;11549;50.852;3.816;2022-09-21T11:47:52;4.85;;;1.20;;
22764;SDS011;11549;50.852;3.816;2022-09-21T11:50:42;7.22;;;1.38;;
22764;SDS011;11549;50.852;3.816;2022-09-21T11:53:27;3.78;;;1.25;;
22764;SDS011;11549;50.852;3.816;2022-09-21T11:56:22;6.13;;;1.85;;
22764;SDS011;11549;50.852;3.816;2022-09-21T11:59:03;5.88;;;1.90;;
22764;SDS011;11549;50.852;3.816;2022-09-21T12:01:47;6.75;;;1.63;;
22764;SDS011;11549;50.852;3.816;2022-09-21T12:04:31;5.80;;;1.88;;
22764;SDS011;11549;50.852;3.816;2022-09-21T12:07:13;4.43;;;1.55;;
22764;SDS011;11549;50.852;3.816;2022-09-21T12:12:46;5.50;;;1.30;;
22764;SDS011;11549;50.852;3.816;2022-09-21T12:15:21;6.35;;;1.50;;
22764;SDS011;11549;50.852;3.816;2022-09-21T12:20:31;6.00;;;1.60;;
22764;SDS011;11549;50.852;3.816;2022-09-21T12:23:09;5.50;;;1.67;;
22764;SDS011;11549;50.852;3.816;2022-09-21T12:25:43;3.70;;;1.25;;
22764;SDS011;11549;50.852;3.816;2022-09-21T12:28:17;4.78;;;1.40;;
22764;SDS011;11549;50.852;3.816;2022-09-21T12:30:50;5.80;;;1.60;;
22764;SDS011;11549;50.852;3.816;2022-09-21T12:33:30;3.35;;;1.08;;
22764;SDS011;11549;50.852;3.816;2022-09-21T12:36:06;5.40;;;1.40;;
22764;SDS011;11549;50.852;3.816;2022-09-21T12:38:41;2.78;;;0.98;;
22764;SDS011;11549;50.852;3.816;2022-09-21T12:41:16;5.80;;;1.15;;
22764;SDS011;11549;50.852;3.816;2022-09-21T12:43:50;5.55;;;1.00;;
22764;SDS011;11549;50.852;3.816;2022-09-21T12:46:24;3.42;;;1.00;;
22764;SDS011;11549;50.852;3.816;2022-09-21T12:48:58;3.40;;;1.08;;
22764;SDS011;11549;50.852;3.816;2022-09-21T12:51:30;5.95;;;1.20;;
22764;SDS011;11549;50.852;3.816;2022-09-21T12:54:04;4.95;;;1.00;;
22764;SDS011;11549;50.852;3.816;2022-09-21T12:56:36;5.90;;;1.15;;
22764;SDS011;11549;50.852;3.816;2022-09-21T12:59:16;6.35;;;1.40;;
22764;SDS011;11549;50.852;3.816;2022-09-21T13:01:52;4.13;;;1.08;;
22764;SDS011;11549;50.852;3.816;2022-09-21T13:04:32;5.53;;;1.08;;
22764;SDS011;11549;50.852;3.816;2022-09-21T13:10:13;6.60;;;1.13;;
22764;SDS011;11549;50.852;3.816;2022-09-21T13:12:45;6.20;;;1.63;;
22764;SDS011;11549;50.852;3.816;2022-09-21T13:15:21;4.85;;;1.20;;
22764;SDS011;11549;50.852;3.816;2022-09-21T13:17:58;5.63;;;1.27;;
22764;SDS011;11549;50.852;3.816;2022-09-21T13:20:34;4.25;;;1.10;;
22764;SDS011;11549;50.852;3.816;2022-09-21T13:23:05;4.95;;;1.20;;
22764;SDS011;11549;50.852;3.816;2022-09-21T13:25:45;4.20;;;1.40;;
22764;SDS011;11549;50.852;3.816;2022-09-21T13:28:19;5.28;;;1.30;;
22764;SDS011;11549;50.852;3.816;2022-09-21T13:31:27;3.67;;;1.25;;
22764;SDS011;11549;50.852;3.816;2022-09-21T13:34:19;5.75;;;1.20;;
22764;SDS011;11549;50.852;3.816;2022-09-21T13:42:54;4.95;;;1.20;;
22764;SDS011;11549;50.852;3.816;2022-09-21T13:45:54;4.82;;;1.58;;
22764;SDS011;11549;50.852;3.816;2022-09-21T13:48:25;5.18;;;1.23;;
22764;SDS011;11549;50.852;3.816;2022-09-21T13:50:56;5.70;;;1.13;;
22764;SDS011;11549;50.852;3.816;2022-09-21T13:53:33;5.70;;;1.30;;
22764;SDS011;11549;50.852;3.816;2022-09-21T13:56:15;4.40;;;1.30;;
22764;SDS011;11549;50.852;3.816;2022-09-21T13:58:46;5.97;;;1.38;;
22764;SDS011;11549;50.852;3.816;2022-09-21T14:01:18;9.45;;;1.45;;
22764;SDS011;11549;50.852;3.816;2022-09-21T14:04:15;3.55;;;1.30;;
22764;SDS011;11549;50.852;3.816;2022-09-21T14:06:48;4.82;;;1.20;;
22764;SDS011;11549;50.852;3.816;2022-09-21T14:09:22;4.40;;;1.30;;
22764;SDS011;11549;50.852;3.816;2022-09-21T14:11:54;3.80;;;1.27;;
22764;SDS011;11549;50.852;3.816;2022-09-21T14:14:26;4.45;;;1.20;;
22764;SDS011;11549;50.852;3.816;2022-09-21T14:16:58;5.50;;;1.50;;
22764;SDS011;11549;50.852;3.816;2022-09-21T14:22:36;4.82;;;1.05;;
22764;SDS011;11549;50.852;3.816;2022-09-21T14:25:24;4.22;;;1.60;;
22764;SDS011;11549;50.852;3.816;2022-09-21T14:28:07;8.20;;;1.15;;
22764;SDS011;11549;50.852;3.816;2022-09-21T14:30:39;6.10;;;1.48;;
22764;SDS011;11549;50.852;3.816;2022-09-21T14:33:23;4.97;;;1.20;;
22764;SDS011;11549;50.852;3.816;2022-09-21T14:35:58;4.35;;;1.40;;
22764;SDS011;11549;50.852;3.816;2022-09-21T14:38:34;3.53;;;1.08;;
22764;SDS011;11549;50.852;3.816;2022-09-21T14:41:20;4.30;;;1.20;;
22764;SDS011;11549;50.852;3.816;2022-09-21T14:43:51;4.70;;;1.20;;
22764;SDS011;11549;50.852;3.816;2022-09-21T14:49:24;4.55;;;1.10;;
22764;SDS011;11549;50.852;3.816;2022-09-21T14:54:55;4.57;;;1.55;;
22764;SDS011;11549;50.852;3.816;2022-09-21T14:57:36;5.05;;;1.20;;
22764;SDS011;11549;50.852;3.816;2022-09-21T15:00:34;5.63;;;1.40;;
22764;SDS011;11549;50.852;3.816;2022-09-21T15:03:19;4.38;;;1.20;;
22764;SDS011;11549;50.852;3.816;2022-09-21T15:06:18;5.00;;;1.27;;
22764;SDS011;11549;50.852;3.816;2022-09-21T15:09:28;4.32;;;2.17;;
22764;SDS011;11549;50.852;3.816;2022-09-21T15:12:34;5.28;;;1.30;;
22764;SDS011;11549;50.852;3.816;2022-09-21T15:15:17;4.03;;;1.00;;
22764;SDS011;11549;50.852;3.816;2022-09-21T15:17:50;5.13;;;1.30;;
22764;SDS011;11549;50.852;3.816;2022-09-21T15:20:25;5.25;;;1.33;;
22764;SDS011;11549;50.852;3.816;2022-09-21T15:22:56;4.75;;;1.27;;
22764;SDS011;11549;50.852;3.816;2022-09-21T15:25:27;6.63;;;1.50;;
22764;SDS011;11549;50.852;3.816;2022-09-21T15:28:00;4.32;;;1.08;;
22764;SDS011;11549;50.852;3.816;2022-09-21T15:30:30;3.70;;;0.90;;
22764;SDS011;11549;50.852;3.816;2022-09-21T15:32:59;2.20;;;0.80;;
22764;SDS011;11549;50.852;3.816;2022-09-21T15:35:29;3.45;;;0.93;;
22764;SDS011;11549;50.852;3.816;2022-09-21T15:37:59;4.50;;;1.00;;
22764;SDS011;11549;50.852;3.816;2022-09-21T15:40:28;5.53;;;1.20;;
22764;SDS011;11549;50.852;3.816;2022-09-21T15:43:01;3.53;;;0.95;;
22764;SDS011;11549;50.852;3.816;2022-09-21T15:45:32;3.20;;;0.90;;
22764;SDS011;11549;50.852;3.816;2022-09-21T15:48:12;4.30;;;0.85;;
22764;SDS011;11549;50.852;3.816;2022-09-21T15:50:41;5.40;;;1.38;;